Time;durP1;ratioP1;P1;durP2;ratioP2;P2;SDS_P1;SDS_P2;PMS_P1;PMS_P2;Temp;Humidity;BMP_temperature;BMP_pressure;BME280_temperature;BME280_humidity;BME280_pressure;Samples;Min_cycle;Max_cycle;Signal;HPM_P1;HPM_P2
2024/03/08 00:02:28;;;;;;;6.38;3.50;;;;;;;3.41;69.64;92482.28;2071407;69;20175;-74
2024/03/08 00:04:55;;;;;;;7.70;3.50;;;;;;;3.32;70.03;92485.69;2067856;69;20148;-75
2024/03/08 00:07:20;;;;;;;7.15;3.70;;;;;;;3.36;69.39;92482.50;2071540;69;20156;-74
2024/03/08 00:09:46;;;;;;;4.70;3.08;;;;;;;3.29;69.75;92487.56;2071372;69;20163;-75
2024/03/08 00:12:12;;;;;;;8.98;4.20;;;;;;;3.22;69.60;92471.66;2071544;69;20151;-75
2024/03/08 00:14:37;;;;;;;5.18;3.15;;;;;;;3.11;69.67;92474.16;2068047;69;20156;-75
2024/03/08 00:17:03;;;;;;;7.35;3.90;;;;;;;3.12;69.89;92462.50;2070819;69;20231;-75
2024/03/08 00:19:29;;;;;;;4.55;3.50;;;;;;;3.14;69.51;92464.69;2071273;69;20566;-74
2024/03/08 00:21:55;;;;;;;6.00;3.65;;;;;;;3.03;69.25;92469.41;2070978;69;20144;-75
2024/03/08 00:24:25;;;;;;;5.22;2.85;;;;;;;3.14;69.11;92475.81;2071660;69;20132;-77
2024/03/08 00:26:50;;;;;;;5.90;2.00;;;;;;;3.17;68.53;92466.34;2071438;69;20150;-75
2024/03/08 00:29:16;;;;;;;4.47;1.88;;;;;;;3.14;67.73;92465.44;2071436;69;20144;-77
2024/03/08 00:31:41;;;;;;;4.63;2.10;;;;;;;3.17;67.62;92464.28;2071364;69;20631;-76
2024/03/08 00:34:07;;;;;;;4.72;2.97;;;;;;;3.11;68.26;92469.34;2071504;69;20148;-77
2024/03/08 00:36:34;;;;;;;6.35;3.20;;;;;;;3.01;68.70;92468.50;2071403;69;20213;-78
2024/03/08 00:39:00;;;;;;;7.35;2.67;;;;;;;2.95;68.38;92459.66;2068327;69;20199;-77
2024/03/08 00:45:14;;;;;;;4.03;2.28;;;;;;;2.67;69.32;92460.75;2071431;69;20202;-76
2024/03/08 00:47:43;;;;;;;3.17;1.63;;;;;;;2.67;68.74;92446.88;2070956;69;20183;-75
2024/03/08 00:50:14;;;;;;;3.90;1.77;;;;;;;2.84;68.67;92451.75;2068042;69;20146;-74
2024/03/08 00:52:40;;;;;;;2.58;1.60;;;;;;;2.87;68.08;92450.63;2071272;69;20465;-76
2024/03/08 00:55:11;;;;;;;3.50;1.60;;;;;;;2.79;67.99;92437.53;2071232;69;20619;-76
2024/03/08 00:57:40;;;;;;;4.93;1.33;;;;;;;2.87;68.08;92451.34;2071373;69;20191;-76
2024/03/08 01:00:11;;;;;;;2.40;1.50;;;;;;;2.88;68.16;92447.25;2071513;69;20144;-77
2024/03/08 01:02:38;;;;;;;2.50;1.52;;;;;;;2.69;69.09;92450.53;2062624;69;20148;-76
2024/03/08 01:05:08;;;;;;;2.75;1.58;;;;;;;2.85;68.28;92456.75;2071336;69;20192;-75
2024/03/08 01:07:37;;;;;;;4.32;2.00;;;;;;;2.70;69.25;92448.50;2071108;69;20152;-75
2024/03/08 01:12:59;;;;;;;6.28;1.75;;;;;;;2.80;68.44;92436.22;2070728;69;20206;-75
2024/03/08 01:15:30;;;;;;;3.83;1.95;;;;;;;2.57;68.79;92430.06;2071265;69;20528;-75
2024/03/08 01:18:00;;;;;;;2.30;1.48;;;;;;;2.74;68.60;92434.94;2071284;69;20155;-75
2024/03/08 01:20:27;;;;;;;2.67;1.30;;;;;;;2.79;68.04;92434.75;2071280;69;20235;-75
2024/03/08 01:22:54;;;;;;;3.60;1.70;;;;;;;2.62;68.24;92414.47;2071197;69;20136;-76
2024/03/08 01:25:20;;;;;;;4.53;1.40;;;;;;;2.70;68.45;92426.25;2071256;69;20574;-76
2024/03/08 01:27:49;;;;;;;4.05;1.50;;;;;;;2.81;67.81;92420.25;2071252;69;20587;-76
2024/03/08 01:30:17;;;;;;;2.88;1.80;;;;;;;2.34;68.64;92426.66;2071304;69;20175;-76
2024/03/08 01:32:44;;;;;;;3.42;1.70;;;;;;;2.56;68.19;92417.47;2070709;69;20148;-76
2024/03/08 01:35:10;;;;;;;3.47;1.92;;;;;;;2.50;68.36;92420.47;2071005;69;20226;-76
2024/03/08 01:37:36;;;;;;;3.45;1.60;;;;;;;2.41;67.85;92409.97;2070859;69;20225;-76
2024/03/08 01:40:02;;;;;;;5.70;1.65;;;;;;;2.66;66.28;92417.59;2071197;69;20164;-77
2024/03/08 01:42:28;;;;;;;3.10;1.60;;;;;;;2.79;66.12;92418.06;2067856;69;20140;-76
2024/03/08 01:44:54;;;;;;;3.25;1.40;;;;;;;2.66;66.22;92415.56;2071247;69;20191;-76
2024/03/08 01:47:24;;;;;;;3.63;1.50;;;;;;;2.73;65.93;92411.97;2071128;69;20164;-77
2024/03/08 01:49:50;;;;;;;2.20;1.40;;;;;;;2.59;66.23;92394.09;2071373;69;20143;-77
2024/03/08 01:52:18;;;;;;;4.32;1.30;;;;;;;2.64;65.94;92404.25;2071016;69;20617;-75
2024/03/08 01:54:45;;;;;;;2.78;1.30;;;;;;;2.62;65.73;92397.81;2071028;69;20159;-74
2024/03/08 01:57:11;;;;;;;3.00;1.40;;;;;;;2.64;66.28;92401.47;2071128;69;20710;-76
2024/03/08 01:59:38;;;;;;;1.58;1.35;;;;;;;2.46;65.80;92384.00;2071297;69;20175;-76
2024/03/08 02:02:05;;;;;;;2.42;1.25;;;;;;;2.66;66.11;92398.88;2071009;69;20175;-75
2024/03/08 02:04:31;;;;;;;3.65;1.52;;;;;;;2.70;66.20;92392.91;2071318;69;20175;-76
2024/03/08 02:07:00;;;;;;;2.97;1.30;;;;;;;2.47;67.22;92398.63;2071756;69;20141;-75
2024/03/08 02:09:26;;;;;;;3.15;1.45;;;;;;;2.38;67.30;92394.41;2071725;69;20231;-76
2024/03/08 02:11:51;;;;;;;2.85;1.33;;;;;;;2.52;67.38;92389.31;2068396;69;20215;-74
2024/03/08 02:18:07;;;;;;;2.90;1.20;;;;;;;2.55;66.66;92388.19;2071799;69;20250;-74
2024/03/08 02:20:32;;;;;;;3.90;1.30;;;;;;;2.52;66.60;92383.78;2071873;69;20159;-74
2024/03/08 02:22:58;;;;;;;2.65;1.00;;;;;;;2.46;66.88;92378.44;2071704;69;20164;-74
2024/03/08 02:25:24;;;;;;;2.17;1.35;;;;;;;2.49;66.79;92382.13;2071689;69;20172;-74
2024/03/08 02:27:49;;;;;;;1.90;1.10;;;;;;;2.50;65.99;92375.28;2071183;69;20152;-74
2024/03/08 02:30:17;;;;;;;2.05;1.50;;;;;;;2.48;66.78;92381.41;2071867;69;20172;-75
2024/03/08 02:32:43;;;;;;;7.68;1.23;;;;;;;2.48;66.46;92383.44;2071715;69;20143;-74
2024/03/08 02:35:09;;;;;;;1.85;1.10;;;;;;;2.48;66.85;92375.84;2071903;69;20187;-75
2024/03/08 02:37:34;;;;;;;2.13;1.20;;;;;;;2.32;65.81;92373.72;2071801;69;20142;-75
2024/03/08 02:40:00;;;;;;;2.92;1.05;;;;;;;2.37;65.52;92361.66;2068395;69;20151;-75
2024/03/08 02:42:26;;;;;;;2.15;1.33;;;;;;;2.38;65.01;92374.25;2071548;69;20125;-75
2024/03/08 02:44:51;;;;;;;3.30;1.20;;;;;;;2.44;64.96;92364.38;2071805;69;20230;-75
2024/03/08 02:47:17;;;;;;;4.90;1.10;;;;;;;2.45;64.96;92373.47;2071663;69;20218;-75
2024/03/08 02:49:42;;;;;;;3.42;1.15;;;;;;;2.47;65.15;92373.63;2068481;69;20144;-75
2024/03/08 02:52:08;;;;;;;3.40;1.30;;;;;;;2.37;65.62;92361.66;2068596;69;20503;-75
2024/03/08 02:54:36;;;;;;;3.22;1.10;;;;;;;2.24;65.12;92363.38;2071731;69;20150;-75
2024/03/08 02:57:03;;;;;;;3.38;1.10;;;;;;;2.44;64.95;92360.88;2068466;69;20294;-75
2024/03/08 02:59:29;;;;;;;4.22;1.10;;;;;;;2.16;65.55;92354.38;2071772;69;20221;-75
2024/03/08 03:01:55;;;;;;;1.98;1.55;;;;;;;1.98;66.15;92361.91;2071589;69;20235;-75
2024/03/08 03:04:21;;;;;;;2.33;1.30;;;;;;;2.13;65.53;92366.63;2071934;69;20182;-75
2024/03/08 03:06:46;;;;;;;3.90;1.70;;;;;;;2.23;65.79;92356.38;2071888;69;20676;-75
2024/03/08 03:09:13;;;;;;;2.42;1.73;;;;;;;2.28;65.50;92368.56;2071843;69;20148;-74
2024/03/08 03:11:38;;;;;;;7.32;1.60;;;;;;;2.34;65.04;92360.00;2071857;69;20152;-75
2024/03/08 03:14:04;;;;;;;2.45;1.45;;;;;;;2.20;66.26;92354.75;2071675;69;20185;-75
2024/03/08 03:16:30;;;;;;;4.32;1.30;;;;;;;2.11;66.11;92360.13;2071613;69;20183;-75
2024/03/08 03:18:57;;;;;;;4.47;0.98;;;;;;;2.21;65.81;92355.47;2071559;69;20147;-74
2024/03/08 03:21:22;;;;;;;1.48;0.93;;;;;;;2.17;65.48;92352.34;2071785;69;20689;-74
2024/03/08 03:23:48;;;;;;;3.38;1.00;;;;;;;2.10;65.41;92355.91;2071506;69;20152;-76
2024/03/08 03:26:17;;;;;;;3.65;0.95;;;;;;;2.22;64.97;92351.38;2071705;69;20157;-75
2024/03/08 03:28:43;;;;;;;2.15;1.05;;;;;;;2.07;65.26;92349.44;2071632;69;20211;-75
2024/03/08 03:31:14;;;;;;;1.90;1.20;;;;;;;2.17;65.53;92347.53;2071623;69;20144;-74
2024/03/08 03:33:40;;;;;;;2.38;1.08;;;;;;;2.11;65.76;92344.25;2071255;69;20233;-75
2024/03/08 03:36:05;;;;;;;4.85;1.10;;;;;;;2.09;66.39;92346.09;2071649;69;20175;-75
2024/03/08 03:38:31;;;;;;;1.88;1.00;;;;;;;2.06;66.36;92350.72;2071908;69;20673;-75
2024/03/08 03:41:04;;;;;;;3.53;1.20;;;;;;;2.09;66.08;92341.28;2071670;69;20148;-75
2024/03/08 03:43:29;;;;;;;1.90;1.10;;;;;;;1.98;66.95;92348.00;2071616;69;20172;-75
2024/03/08 03:49:42;;;;;;;6.68;1.35;;;;;;;2.06;65.53;92339.63;2071797;69;20124;-75
2024/03/08 03:52:08;;;;;;;15.50;8.20;;;;;;;1.90;65.03;92333.44;2071694;69;20173;-74
2024/03/08 03:54:34;;;;;;;6.05;3.50;;;;;;;1.97;65.16;92338.22;2071553;69;20176;-75
2024/03/08 03:57:00;;;;;;;3.42;1.63;;;;;;;1.96;65.91;92335.97;2071622;69;20138;-75
2024/03/08 03:59:26;;;;;;;2.78;1.00;;;;;;;1.95;66.43;92342.84;2071549;69;20152;-75
2024/03/08 04:01:53;;;;;;;2.58;1.20;;;;;;;1.92;66.87;92341.19;2071447;69;20231;-76
2024/03/08 04:04:19;;;;;;;2.20;1.20;;;;;;;1.89;65.65;92334.75;2071774;69;20144;-75
2024/03/08 04:06:45;;;;;;;2.45;1.00;;;;;;;2.01;65.88;92346.13;2071688;69;20265;-75
2024/03/08 04:09:12;;;;;;;1.83;1.25;;;;;;;1.99;65.57;92338.38;2071551;69;20136;-76
2024/03/08 04:11:38;;;;;;;2.85;1.20;;;;;;;1.94;65.82;92339.34;2071344;69;20140;-74
2024/03/08 04:14:05;;;;;;;2.75;1.00;;;;;;;1.45;65.32;92335.13;2071562;69;20536;-74
2024/03/08 04:16:31;;;;;;;5.65;1.40;;;;;;;1.69;64.90;92332.97;2071684;69;20140;-75
2024/03/08 04:18:57;;;;;;;4.30;1.00;;;;;;;1.86;64.43;92330.31;2068258;69;20596;-75
2024/03/08 04:21:23;;;;;;;2.92;0.90;;;;;;;1.85;64.91;92325.31;2071779;69;20171;-74
2024/03/08 04:23:48;;;;;;;3.13;1.15;;;;;;;1.66;65.46;92331.34;2071555;69;20706;-74
2024/03/08 04:26:14;;;;;;;2.92;1.10;;;;;;;1.71;66.09;92319.28;2071543;69;20151;-76
2024/03/08 04:28:40;;;;;;;2.60;1.20;;;;;;;1.78;66.16;92324.06;2071563;69;20140;-75
2024/03/08 04:31:06;;;;;;;4.07;1.10;;;;;;;1.76;66.05;92321.84;2071595;69;20209;-75
2024/03/08 04:33:32;;;;;;;4.47;1.08;;;;;;;1.74;66.09;92326.47;2071149;69;20208;-76
2024/03/08 04:35:58;;;;;;;4.15;1.10;;;;;;;1.83;64.99;92314.78;2068351;69;20144;-76
2024/03/08 04:38:24;;;;;;;4.55;1.10;;;;;;;1.72;65.98;92324.28;2071650;69;20148;-76
2024/03/08 04:40:50;;;;;;;2.20;1.20;;;;;;;1.87;65.65;92325.47;2068348;69;20176;-75
2024/03/08 04:43:18;;;;;;;2.35;1.00;;;;;;;1.92;65.76;92313.44;2071227;69;20615;-75
2024/03/08 04:45:44;;;;;;;3.78;1.10;;;;;;;1.87;64.55;92314.38;2071380;69;20147;-75
2024/03/08 04:48:11;;;;;;;2.38;1.30;;;;;;;1.85;64.57;92314.97;2071051;69;20137;-75
2024/03/08 04:50:38;;;;;;;4.03;1.38;;;;;;;1.86;64.06;92312.91;2071460;69;20164;-75
2024/03/08 04:53:04;;;;;;;3.85;1.30;;;;;;;1.77;64.35;92320.53;2071319;69;20155;-75
2024/03/08 04:55:33;;;;;;;3.30;1.05;;;;;;;1.74;64.84;92313.34;2068130;69;20187;-76
2024/03/08 04:58:03;;;;;;;2.47;1.00;;;;;;;1.77;64.93;92317.03;2068124;69;20183;-75
2024/03/08 05:00:30;;;;;;;3.60;1.40;;;;;;;1.68;65.20;92309.31;2071514;69;20262;-74
2024/03/08 05:02:55;;;;;;;1.90;1.52;;;;;;;1.66;65.55;92312.66;2071366;69;20145;-75
2024/03/08 05:05:22;;;;;;;3.00;1.30;;;;;;;1.47;66.56;92310.34;2065519;69;20147;-75
2024/03/08 05:07:49;;;;;;;1.10;0.90;;;;;;;1.44;66.84;92314.22;2071364;69;20148;-76
2024/03/08 05:10:17;;;;;;;1.92;1.00;;;;;;;1.61;64.51;92310.09;2071125;69;20152;-75
2024/03/08 05:12:45;;;;;;;1.40;0.90;;;;;;;1.73;63.96;92320.19;2071498;69;20591;-76
2024/03/08 05:15:11;;;;;;;3.22;1.30;;;;;;;1.70;64.07;92318.56;2071721;69;20154;-76
2024/03/08 05:17:36;;;;;;;3.70;1.02;;;;;;;1.64;63.90;92317.28;2071426;69;20144;-76
2024/03/08 05:20:03;;;;;;;5.80;1.10;;;;;;;1.71;63.20;92320.03;2071600;69;20137;-76
2024/03/08 05:22:29;;;;;;;3.70;1.30;;;;;;;1.72;62.97;92312.44;2068162;69;20376;-77
2024/03/08 05:24:55;;;;;;;6.38;1.50;;;;;;;1.41;63.62;92309.06;2068142;69;20207;-77
2024/03/08 05:27:21;;;;;;;4.97;2.55;;;;;;;1.67;63.41;92310.63;2071503;69;20141;-76
2024/03/08 05:29:46;;;;;;;5.22;2.20;;;;;;;1.76;63.34;92310.00;2071645;69;20144;-76
2024/03/08 05:32:12;;;;;;;2.65;1.33;;;;;;;1.73;63.32;92308.34;2071408;69;20132;-75
2024/03/08 05:34:38;;;;;;;3.10;1.40;;;;;;;1.60;63.77;92298.22;2071655;69;20565;-76
2024/03/08 05:37:04;;;;;;;29.45;7.95;;;;;;;1.59;64.29;92299.53;2071590;69;20151;-76
2024/03/08 05:39:30;;;;;;;29.38;9.68;;;;;;;1.48;64.17;92302.75;2071604;69;20184;-76
2024/03/08 05:41:55;;;;;;;20.13;6.88;;;;;;;1.57;64.25;92312.53;2072034;69;20626;-77
2024/03/08 05:48:08;;;;;;;13.25;4.20;;;;;;;1.34;66.78;92309.84;2072025;69;20143;-76
2024/03/08 05:50:36;;;;;;;4.13;1.63;;;;;;;1.34;64.50;92310.56;2072069;69;20693;-77
2024/03/08 05:53:02;;;;;;;3.33;1.08;;;;;;;1.31;64.86;92310.94;2071739;69;20160;-77
2024/03/08 05:55:29;;;;;;;1.58;1.08;;;;;;;1.51;63.74;92305.16;2071911;69;20222;-77
2024/03/08 05:57:56;;;;;;;4.80;1.27;;;;;;;1.40;63.77;92300.00;2072101;69;20626;-77
2024/03/08 06:00:22;;;;;;;4.25;1.60;;;;;;;1.61;64.20;92304.53;2072163;69;20164;-76
2024/03/08 06:02:48;;;;;;;3.80;1.30;;;;;;;1.62;64.45;92303.97;2071789;69;20156;-77
2024/03/08 06:05:14;;;;;;;3.80;1.33;;;;;;;1.64;65.07;92308.97;2068715;69;20243;-77
2024/03/08 06:07:40;;;;;;;4.22;1.23;;;;;;;1.62;64.47;92298.44;2072085;69;20179;-77
2024/03/08 06:10:09;;;;;;;6.53;1.10;;;;;;;1.58;64.31;92303.63;2071886;69;20140;-78
2024/03/08 06:12:40;;;;;;;2.30;1.10;;;;;;;1.59;64.91;92315.44;2071938;69;20661;-77
2024/03/08 06:15:07;;;;;;;1.85;1.10;;;;;;;1.60;65.33;92312.09;2071940;69;20140;-77
2024/03/08 06:17:34;;;;;;;6.22;1.63;;;;;;;1.55;65.36;92318.59;2071779;69;20539;-77
2024/03/08 06:19:59;;;;;;;3.00;1.15;;;;;;;1.47;65.58;92321.44;2071827;69;20574;-77
2024/03/08 06:22:25;;;;;;;3.95;1.40;;;;;;;1.53;66.04;92319.19;2071495;69;20564;-77
2024/03/08 06:24:51;;;;;;;6.38;1.20;;;;;;;1.54;65.89;92328.25;2071816;69;20441;-77
2024/03/08 06:27:17;;;;;;;5.28;1.20;;;;;;;1.55;65.33;92315.09;2071859;69;20224;-77
2024/03/08 06:29:43;;;;;;;5.22;1.50;;;;;;;1.31;64.90;92316.50;2071764;69;20156;-77
2024/03/08 06:32:08;;;;;;;4.60;1.85;;;;;;;1.42;64.65;92316.84;2071771;69;20140;-77
2024/03/08 06:34:37;;;;;;;4.20;2.10;;;;;;;1.50;64.02;92327.88;2071767;69;20642;-77
2024/03/08 06:37:02;;;;;;;4.20;1.80;;;;;;;1.66;64.41;92323.75;2071787;69;20643;-77
2024/03/08 06:39:31;;;;;;;6.78;1.55;;;;;;;1.71;63.95;92333.16;2068375;69;20141;-77
2024/03/08 06:41:57;;;;;;;8.45;2.80;;;;;;;1.62;64.57;92331.00;2071732;69;20539;-77
2024/03/08 06:44:23;;;;;;;4.90;2.05;;;;;;;1.71;64.20;92331.13;2068293;69;20224;-77
2024/03/08 06:46:48;;;;;;;5.03;1.58;;;;;;;1.69;64.79;92317.06;2071708;69;20210;-76
2024/03/08 06:49:15;;;;;;;4.88;1.40;;;;;;;1.70;64.98;92318.56;2071930;69;20146;-76
2024/03/08 06:51:41;;;;;;;3.30;1.02;;;;;;;1.71;65.01;92328.34;2071511;69;20148;-76
2024/03/08 06:54:10;;;;;;;5.53;1.65;;;;;;;1.59;65.38;92324.50;2071853;69;20286;-78
2024/03/08 06:56:36;;;;;;;5.38;1.45;;;;;;;1.72;65.46;92329.81;2068504;69;20575;-76
2024/03/08 06:59:06;;;;;;;7.00;2.45;;;;;;;1.59;65.69;92324.50;2071474;69;20247;-77
2024/03/08 07:01:31;;;;;;;7.75;3.28;;;;;;;1.71;65.46;92328.34;2071668;69;20156;-77
2024/03/08 07:03:58;;;;;;;5.60;2.40;;;;;;;1.70;65.80;92326.16;2071645;69;20208;-77
2024/03/08 07:06:23;;;;;;;3.75;2.00;;;;;;;1.63;65.87;92315.81;2068275;69;20183;-77
2024/03/08 07:08:49;;;;;;;7.57;2.78;;;;;;;1.74;65.91;92330.00;2071794;69;20374;-77
2024/03/08 07:11:18;;;;;;;5.78;2.28;;;;;;;1.70;65.46;92318.56;2071474;69;20665;-77
2024/03/08 07:13:47;;;;;;;4.70;2.10;;;;;;;1.75;65.06;92319.66;2071586;69;20160;-77
2024/03/08 07:16:13;;;;;;;4.55;2.25;;;;;;;1.59;65.67;92321.75;2071431;69;20151;-77
2024/03/08 07:18:43;;;;;;;4.63;2.10;;;;;;;1.68;65.12;92312.81;2071540;69;20148;-77
2024/03/08 07:21:10;;;;;;;4.13;1.52;;;;;;;1.77;65.61;92315.00;2071841;69;20144;-77
2024/03/08 07:26:20;;;;;;;6.60;1.40;;;;;;;1.95;65.00;92323.41;2068867;69;20592;-75
2024/03/08 07:28:46;;;;;;;4.32;1.48;;;;;;;2.00;64.93;92316.91;2071339;69;20612;-75
2024/03/08 07:33:38;;;;;;;3.80;1.20;;;;;;;2.10;64.76;92312.19;2071500;69;20164;-78
2024/03/08 07:36:04;;;;;;;2.47;1.10;;;;;;;2.14;64.38;92306.25;2071594;69;20148;-77
2024/03/08 07:38:30;;;;;;;10.80;3.08;;;;;;;2.05;64.86;92310.38;2071544;69;20259;-76
2024/03/08 07:40:57;;;;;;;17.98;5.50;;;;;;;2.04;64.59;92306.13;2071524;69;20171;-77
2024/03/08 07:43:22;;;;;;;15.63;6.22;;;;;;;2.11;64.33;92296.28;2071568;69;20143;-77
2024/03/08 07:45:48;;;;;;;10.30;3.25;;;;;;;2.15;64.91;92299.41;2071580;69;20148;-76
2024/03/08 07:48:14;;;;;;;7.40;3.38;;;;;;;2.17;65.04;92296.81;2071396;69;20235;-76
2024/03/08 07:50:40;;;;;;;11.40;3.33;;;;;;;1.86;66.14;92293.47;2071614;69;20218;-76
2024/03/08 07:53:09;;;;;;;11.32;3.60;;;;;;;1.99;65.89;92304.31;2071510;69;20541;-76
2024/03/08 07:55:35;;;;;;;8.82;3.08;;;;;;;2.17;64.82;92291.25;2071472;69;20172;-75
2024/03/08 07:58:02;;;;;;;9.18;2.47;;;;;;;2.25;65.13;92295.44;2068091;69;20152;-74
2024/03/08 08:00:30;;;;;;;3.75;2.00;;;;;;;2.14;64.61;92286.81;2071624;69;20144;-74
2024/03/08 08:02:56;;;;;;;5.68;2.35;;;;;;;2.18;64.84;92282.34;2071326;69;20184;-74
2024/03/08 08:05:21;;;;;;;7.70;4.05;;;;;;;2.06;64.30;92275.03;2071667;69;20183;-76
2024/03/08 08:07:47;;;;;;;6.13;3.13;;;;;;;2.30;65.82;92271.53;2071571;69;20137;-74
2024/03/08 08:10:22;;;;;;;8.25;2.63;;;;;;;2.88;66.67;92274.88;2071521;69;20152;-76
2024/03/08 08:12:48;;;;;;;6.68;3.08;;;;;;;3.54;64.39;92264.13;2071675;69;20144;-76
2024/03/08 08:15:14;;;;;;;8.73;3.20;;;;;;;3.74;64.40;92262.94;2071585;69;20217;-75
2024/03/08 08:17:46;;;;;;;6.05;3.00;;;;;;;4.33;63.33;92261.91;2071276;69;20190;-75
2024/03/08 08:20:12;;;;;;;7.07;3.35;;;;;;;4.76;60.98;92262.31;2068378;69;20171;-75
2024/03/08 08:22:42;;;;;;;6.10;2.70;;;;;;;5.12;59.51;92263.53;2071551;69;20156;-77
2024/03/08 08:25:09;;;;;;;8.32;3.47;;;;;;;5.10;58.67;92258.56;2071631;69;20144;-77
2024/03/08 08:27:36;;;;;;;10.15;4.43;;;;;;;5.83;58.79;92251.16;2071497;69;20164;-76
2024/03/08 08:30:08;;;;;;;8.13;4.30;;;;;;;5.83;57.72;92232.34;2068318;69;20243;-77
2024/03/08 08:32:36;;;;;;;9.40;4.32;;;;;;;5.99;58.00;92246.00;2071164;69;20199;-76
2024/03/08 08:35:02;;;;;;;18.33;4.72;;;;;;;6.34;57.90;92249.84;2071602;69;20181;-76
2024/03/08 08:37:28;;;;;;;12.60;4.07;;;;;;;6.35;56.83;92239.41;2071505;69;20159;-76
2024/03/08 08:43:43;;;;;;;6.00;2.72;;;;;;;7.56;53.51;92237.63;2071560;69;20163;-76
2024/03/08 08:46:13;;;;;;;4.55;1.77;;;;;;;7.96;53.67;92235.16;2071666;69;20225;-77
2024/03/08 08:48:42;;;;;;;9.95;2.60;;;;;;;8.07;52.27;92229.59;2071404;69;20132;-77
2024/03/08 08:51:15;;;;;;;10.88;3.90;;;;;;;8.63;53.69;92231.63;2071524;69;20209;-77
2024/03/08 08:53:42;;;;;;;;;;;;;;;8.66;51.63;92229.69;2071396;69;20168;-75
2024/03/08 08:56:13;;;;;;;8.10;3.05;;;;;;;9.27;50.19;92227.66;2071581;69;20044;-75
2024/03/08 08:58:42;;;;;;;7.80;2.95;;;;;;;9.30;49.58;92222.88;2071765;69;20140;-75
2024/03/08 09:01:09;;;;;;;8.35;2.75;;;;;;;9.33;48.48;92211.13;2071531;69;20159;-76
2024/03/08 09:03:36;;;;;;;8.70;2.55;;;;;;;10.27;49.17;92216.38;2071530;69;20603;-78
2024/03/08 09:06:04;;;;;;;7.88;4.80;;;;;;;10.23;48.66;92216.13;2071784;69;20152;-78
2024/03/08 09:08:29;;;;;;;8.63;4.57;;;;;;;10.55;48.51;92213.59;2071624;69;20646;-78
2024/03/08 09:10:55;;;;;;;6.28;3.03;;;;;;;10.43;46.92;92205.97;2071604;69;20152;-76
2024/03/08 09:13:21;;;;;;;5.65;1.83;;;;;;;10.74;44.52;92204.75;2071551;69;20159;-77
2024/03/08 09:15:46;;;;;;;3.00;1.60;;;;;;;11.02;44.13;92201.94;2071934;69;20143;-76
2024/03/08 09:18:12;;;;;;;3.92;2.10;;;;;;;11.43;44.20;92202.63;2071881;69;20183;-76
2024/03/08 09:20:38;;;;;;;5.10;2.50;;;;;;;11.55;42.49;92193.31;2072017;69;20259;-79
2024/03/08 09:23:04;;;;;;;6.93;2.47;;;;;;;12.44;43.75;92186.28;2072023;69;20515;-79
2024/03/08 09:25:29;;;;;;;2.55;1.40;;;;;;;11.38;41.78;92189.69;2065758;69;20616;-76
2024/03/08 09:27:55;;;;;;;3.45;1.70;;;;;;;11.19;43.77;92184.50;2071992;69;20152;-78
2024/03/08 09:30:21;;;;;;;2.72;1.50;;;;;;;11.65;41.46;92188.91;2071859;69;20144;-78
2024/03/08 09:32:47;;;;;;;5.10;2.30;;;;;;;11.99;41.21;92186.28;2071835;69;20167;-77
2024/03/08 09:35:13;;;;;;;4.50;1.75;;;;;;;11.92;40.70;92188.09;2071917;69;20141;-77
2024/03/08 09:37:39;;;;;;;4.50;1.50;;;;;;;11.93;40.42;92186.75;2068349;69;20231;-77
2024/03/08 09:40:09;;;;;;;4.28;1.60;;;;;;;13.47;40.68;92175.25;2072004;69;20527;-78
2024/03/08 09:42:38;;;;;;;3.38;1.73;;;;;;;13.25;38.81;92167.94;2071836;69;20147;-77
2024/03/08 09:45:11;;;;;;;2.85;1.77;;;;;;;12.37;39.31;92166.88;2071864;69;20132;-75
2024/03/08 09:47:44;;;;;;;2.88;1.50;;;;;;;13.57;38.17;92168.56;2071658;69;20140;-75
2024/03/08 09:50:12;;;;;;;3.85;1.38;;;;;;;14.07;38.65;92164.19;2071826;69;20500;-75
2024/03/08 09:52:49;;;;;;;3.78;1.10;;;;;;;14.32;37.12;92148.88;2071830;69;20144;-76
2024/03/08 09:55:17;;;;;;;3.53;1.35;;;;;;;15.24;36.52;92161.47;2071926;69;20628;-76
2024/03/08 10:00:30;;;;;;;2.50;1.27;;;;;;;15.75;37.78;92154.69;2064847;69;20144;-77
2024/03/08 10:03:01;;;;;;;2.40;1.45;;;;;;;15.28;35.29;92134.63;2068314;69;20209;-75
2024/03/08 10:05:26;;;;;;;11.73;5.60;;;;;;;14.17;37.22;92132.72;2072189;69;20148;-77
2024/03/08 10:07:53;;;;;;;3.47;1.58;;;;;;;16.56;35.21;92138.75;2072056;69;20143;-77
2024/03/08 10:10:18;;;;;;;4.72;1.85;;;;;;;16.20;36.65;92141.22;2072008;69;20144;-77
2024/03/08 10:12:45;;;;;;;3.53;1.60;;;;;;;15.48;34.50;92130.38;2072162;69;20146;-77
2024/03/08 10:15:12;;;;;;;2.70;1.20;;;;;;;16.82;33.89;92130.31;2071909;69;20213;-77
2024/03/08 10:17:39;;;;;;;3.38;1.10;;;;;;;16.64;32.77;92129.75;2071661;69;20203;-79
2024/03/08 10:20:28;;;;;;;3.10;1.00;;;;;;;17.33;32.58;92126.03;2072003;69;20141;-78
2024/03/08 10:22:55;;;;;;;1.98;1.10;;;;;;;18.17;31.25;92120.31;2072001;69;20160;-77
2024/03/08 10:25:21;;;;;;;4.07;1.00;;;;;;;17.33;31.19;92113.94;2071954;69;20175;-77
2024/03/08 10:27:46;;;;;;;3.00;1.65;;;;;;;16.43;31.85;92114.94;2072018;69;20156;-77
2024/03/08 10:30:19;;;;;;;4.20;1.55;;;;;;;18.50;30.61;92107.53;2072116;69;20188;-78
2024/03/08 10:32:46;;;;;;;3.38;1.40;;;;;;;17.58;30.05;92101.78;2071647;69;20155;-80
2024/03/08 10:35:12;;;;;;;2.95;1.13;;;;;;;18.51;30.00;92106.13;2071972;69;20190;-79
2024/03/08 10:38:08;;;;;;;2.47;1.33;;;;;;;19.27;29.83;92096.28;2071904;69;20298;-75
2024/03/08 10:40:36;;;;;;;1.65;1.00;;;;;;;21.21;29.09;92090.72;2071878;69;20587;-78
2024/03/08 10:43:04;;;;;;;2.85;1.00;;;;;;;21.29;26.46;92096.53;2068322;69;20658;-76
2024/03/08 10:45:36;;;;;;;5.53;1.20;;;;;;;22.61;26.87;92077.00;2071968;69;20140;-75
2024/03/08 10:48:08;;;;;;;3.83;1.30;;;;;;;22.48;26.84;92090.53;2071952;69;20148;-75
2024/03/08 10:50:35;;;;;;;2.97;1.10;;;;;;;19.74;28.75;92071.47;2071942;69;20176;-75
2024/03/08 10:53:03;;;;;;;4.32;1.23;;;;;;;22.03;26.10;92075.09;2072068;69;20235;-76
2024/03/08 10:55:32;;;;;;;2.30;0.95;;;;;;;22.40;27.27;92075.41;2072006;69;20171;-79
2024/03/08 10:57:58;;;;;;;2.90;1.38;;;;;;;21.36;26.04;92074.47;2071920;69;20145;-77
2024/03/08 11:00:26;;;;;;;4.40;1.30;;;;;;;22.85;24.22;92070.66;2071987;69;20622;-76
2024/03/08 11:02:53;;;;;;;6.28;1.30;;;;;;;24.48;24.49;92073.97;2071758;69;20159;-77
2024/03/08 11:05:39;;;;;;;3.05;1.10;;;;;;;25.84;23.19;92078.59;2071850;69;20144;-77
2024/03/08 11:08:14;;;;;;;4.55;1.27;;;;;;;24.51;23.67;92068.94;2071772;69;20618;-77
2024/03/08 11:10:57;;;;;;;3.22;1.10;;;;;;;24.90;22.72;92066.69;2071757;69;20156;-79
2024/03/08 11:13:36;;;;;;;4.47;1.50;;;;;;;26.37;22.32;92071.75;2068462;69;20136;-79
2024/03/08 11:16:07;;;;;;;2.90;1.23;;;;;;;27.31;22.22;92073.78;2071868;69;20190;-76
2024/03/08 11:18:37;;;;;;;2.58;1.23;;;;;;;29.13;21.00;92054.44;2071806;69;20139;-76
2024/03/08 11:21:12;;;;;;;1.58;0.90;;;;;;;30.13;20.57;92046.56;2071903;69;20144;-77
2024/03/08 11:23:40;;;;;;;2.40;1.10;;;;;;;28.85;21.04;92052.75;2068688;69;20232;-77
2024/03/08 11:26:24;;;;;;;4.32;0.98;;;;;;;29.10;20.19;92047.97;2068616;69;20156;-76
2024/03/08 11:28:53;;;;;;;3.85;1.25;;;;;;;28.22;21.52;92039.28;2071933;69;20152;-77
2024/03/08 11:31:21;;;;;;;1.95;1.08;;;;;;;29.76;20.13;92030.00;2071818;69;20255;-76
2024/03/08 11:33:49;;;;;;;2.78;1.27;;;;;;;29.46;19.36;92025.53;2071665;69;20621;-77
2024/03/08 11:36:22;;;;;;;3.47;1.08;;;;;;;30.43;19.07;92036.47;2071832;69;20148;-79
2024/03/08 11:42:36;;;;;;;1.45;0.80;;;;;;;33.16;18.83;92022.03;2071691;69;20225;-77
2024/03/08 11:45:08;;;;;;;3.15;0.80;;;;;;;31.25;17.67;92019.84;2068378;69;20237;-80
2024/03/08 11:47:35;;;;;;;2.88;1.00;;;;;;;29.89;19.96;92007.22;2071583;69;20172;-78
2024/03/08 11:50:03;;;;;;;6.72;1.17;;;;;;;30.76;20.00;92010.25;2071781;69;20183;-80
2024/03/08 11:52:29;;;;;;;2.28;1.10;;;;;;;32.88;18.41;92009.13;2071650;69;20165;-78
2024/03/08 11:54:56;;;;;;;2.63;1.00;;;;;;;33.76;17.48;92000.91;2071572;69;20568;-78
2024/03/08 11:57:23;;;;;;;3.45;1.08;;;;;;;33.08;19.05;91996.06;2071764;69;20136;-77
2024/03/08 11:59:53;;;;;;;3.63;1.10;;;;;;;33.68;16.78;91992.47;2071782;69;20151;-77
2024/03/08 12:02:19;;;;;;;2.65;1.17;;;;;;;34.04;17.03;91986.75;2071827;69;20623;-76
2024/03/08 12:04:48;;;;;;;1.85;1.10;;;;;;;37.27;16.03;91993.63;2071878;69;20220;-77
2024/03/08 12:07:14;;;;;;;3.58;1.00;;;;;;;36.32;15.65;91985.06;2071504;69;20593;-75
2024/03/08 12:09:46;;;;;;;1.95;0.90;;;;;;;36.03;15.59;91982.78;2071831;69;20276;-76
2024/03/08 12:12:11;;;;;;;;;;;;;;;36.21;15.46;91978.28;2072024;69;20152;-76
2024/03/08 12:14:38;;;;;;;2.88;0.95;;;;;;;38.07;16.12;91982.06;2071677;69;20060;-76